createdAt,value
2022-10-22T00:00:46.175Z,8.51
2022-10-22T00:03:19.059Z,8.52
2022-10-22T00:05:52.306Z,8.51
2022-10-22T00:08:25.475Z,8.49
2022-10-22T00:10:58.159Z,8.48
2022-10-22T00:13:34.154Z,8.47
2022-10-22T00:16:06.985Z,8.46
2022-10-22T00:18:40.278Z,8.46
2022-10-22T00:21:13.385Z,8.45
2022-10-22T00:23:46.465Z,8.45
2022-10-22T00:26:19.110Z,8.41
2022-10-22T00:28:51.997Z,8.42
2022-10-22T00:31:24.853Z,8.42
2022-10-22T00:33:57.916Z,8.41
2022-10-22T00:36:31.056Z,8.40
2022-10-22T00:39:03.984Z,8.36
2022-10-22T00:41:36.696Z,8.32
2022-10-22T00:44:10.217Z,8.33
2022-10-22T00:46:40.955Z,8.31
2022-10-22T00:49:13.611Z,8.27
2022-10-22T00:51:46.295Z,8.27
2022-10-22T00:54:19.344Z,8.27
2022-10-22T00:56:52.176Z,8.29
2022-10-22T00:59:25.126Z,8.29
2022-10-22T01:01:57.785Z,8.30
2022-10-22T01:04:30.567Z,8.29
2022-10-22T01:07:03.402Z,8.27
2022-10-22T01:09:43.648Z,8.22
2022-10-22T01:12:22.905Z,8.20
2022-10-22T01:15:06.686Z,8.19
2022-10-22T01:17:48.116Z,8.18
2022-10-22T01:20:43.215Z,8.20
2022-10-22T01:23:32.535Z,8.16
2022-10-22T01:26:11.150Z,8.14
2022-10-22T01:29:00.176Z,8.16
2022-10-22T01:31:37.908Z,8.17
2022-10-22T01:34:13.426Z,8.16
2022-10-22T01:36:47.215Z,8.17
2022-10-22T01:39:21.357Z,8.17
2022-10-22T01:41:56.137Z,8.12
2022-10-22T01:44:31.269Z,8.09
2022-10-22T01:47:15.775Z,8.07
2022-10-22T01:50:16.791Z,8.02
2022-10-22T01:53:14.275Z,8.03
2022-10-22T01:55:59.230Z,8.00
2022-10-22T01:58:43.787Z,7.97
2022-10-22T02:01:25.505Z,7.97
2022-10-22T02:04:03.215Z,8.00
2022-10-22T02:06:38.416Z,7.99
2022-10-22T02:09:12.026Z,7.96
2022-10-22T02:11:43.245Z,7.98
2022-10-22T02:14:18.065Z,7.92
2022-10-22T02:16:52.637Z,7.91
2022-10-22T02:19:29.288Z,7.88
2022-10-22T02:22:03.156Z,7.84
2022-10-22T02:24:38.035Z,7.81
2022-10-22T02:27:16.955Z,7.78
2022-10-22T02:29:53.905Z,7.76
2022-10-22T02:32:31.806Z,7.68
2022-10-22T02:35:05.786Z,7.66
2022-10-22T02:37:39.486Z,7.59
2022-10-22T02:40:13.667Z,7.54
2022-10-22T02:42:49.335Z,7.51
2022-10-22T02:45:23.276Z,7.32
2022-10-22T02:47:56.186Z,7.23
2022-10-22T02:50:28.676Z,7.18
2022-10-22T02:53:01.266Z,7.14
2022-10-22T02:55:34.047Z,7.11
2022-10-22T02:58:07.096Z,7.11
2022-10-22T03:00:39.844Z,7.09
2022-10-22T03:03:12.535Z,7.06
2022-10-22T03:05:45.096Z,7.01
2022-10-22T03:08:17.718Z,6.98
2022-10-22T03:10:51.996Z,6.98
2022-10-22T03:13:24.906Z,6.98
2022-10-22T03:15:57.666Z,7.01
2022-10-22T03:18:30.699Z,7.00
2022-10-22T03:21:11.068Z,7.01
2022-10-22T03:23:45.295Z,6.96
2022-10-22T03:26:18.176Z,6.93
2022-10-22T03:28:52.302Z,6.92
2022-10-22T03:31:24.955Z,6.87
2022-10-22T03:33:58.384Z,6.84
2022-10-22T03:36:32.748Z,6.80
2022-10-22T03:39:06.631Z,6.74
2022-10-22T03:41:39.386Z,6.71
2022-10-22T03:44:12.453Z,6.70
2022-10-22T03:46:45.415Z,6.70
2022-10-22T03:49:18.776Z,6.71
2022-10-22T03:51:51.326Z,6.71
2022-10-22T03:54:24.105Z,6.74
2022-10-22T03:56:56.837Z,6.71
2022-10-22T03:59:29.702Z,6.70
2022-10-22T04:02:03.795Z,6.66
2022-10-22T04:04:37.510Z,6.62
2022-10-22T04:07:08.352Z,6.64
2022-10-22T04:09:41.185Z,6.62
2022-10-22T04:12:13.646Z,6.66
2022-10-22T04:14:46.523Z,6.65
2022-10-22T04:17:20.715Z,6.65
2022-10-22T04:19:53.278Z,6.68
2022-10-22T04:22:26.525Z,6.70
2022-10-22T04:24:59.304Z,6.70
2022-10-22T04:27:33.575Z,6.70
2022-10-22T04:30:07.137Z,6.71
2022-10-22T04:32:37.663Z,6.72
2022-10-22T04:35:11.403Z,6.67
2022-10-22T04:37:44.176Z,6.67
2022-10-22T04:40:17.486Z,6.66
2022-10-22T04:42:50.401Z,6.65
2022-10-22T04:45:22.958Z,6.65
2022-10-22T04:47:55.495Z,6.68
2022-10-22T04:50:28.477Z,6.66
2022-10-22T04:53:00.985Z,6.67
2022-10-22T04:55:33.879Z,6.68
2022-10-22T04:58:06.655Z,6.70
2022-10-22T05:00:39.529Z,6.71
2022-10-22T05:03:12.155Z,6.72
2022-10-22T05:05:44.986Z,6.72
2022-10-22T05:08:17.876Z,6.73
2022-10-22T05:10:50.475Z,6.74
2022-10-22T05:13:23.105Z,6.72
2022-10-22T05:15:57.415Z,6.72
2022-10-22T05:18:30.556Z,6.74
2022-10-22T05:21:03.320Z,6.76
2022-10-22T05:23:36.135Z,6.77
2022-10-22T05:26:11.957Z,6.76
2022-10-22T05:28:44.518Z,6.75
2022-10-22T05:31:18.204Z,6.74
2022-10-22T05:33:48.944Z,6.75
2022-10-22T05:36:24.005Z,6.68
2022-10-22T05:38:57.167Z,6.68
2022-10-22T05:41:32.355Z,6.71
2022-10-22T05:44:06.416Z,6.74
2022-10-22T05:46:41.295Z,6.80
2022-10-22T05:49:17.005Z,6.85
2022-10-22T05:51:50.336Z,6.85
2022-10-22T05:54:24.016Z,6.87
2022-10-22T05:56:58.335Z,6.90
2022-10-22T05:59:30.955Z,6.94
2022-10-22T06:02:03.652Z,7.03
2022-10-22T06:04:36.283Z,7.13
2022-10-22T06:07:11.626Z,7.22
2022-10-22T06:09:44.517Z,7.37
2022-10-22T06:12:17.228Z,7.54
2022-10-22T06:14:50.276Z,7.68
2022-10-22T06:17:22.906Z,7.72
2022-10-22T06:19:55.534Z,7.73
2022-10-22T06:22:28.515Z,7.76
2022-10-22T06:25:01.277Z,7.78
2022-10-22T06:27:33.997Z,7.80
2022-10-22T06:30:07.615Z,7.88
2022-10-22T06:32:41.456Z,8.09
2022-10-22T06:35:14.337Z,8.32
2022-10-22T06:37:47.874Z,8.54
2022-10-22T06:40:20.761Z,8.75
2022-10-22T06:42:53.386Z,8.92
2022-10-22T06:45:25.976Z,9.05
2022-10-22T06:47:58.636Z,9.22
2022-10-22T06:50:31.275Z,9.39
2022-10-22T06:53:03.797Z,9.56
2022-10-22T06:55:37.456Z,9.69
2022-10-22T06:58:10.145Z,9.80
2022-10-22T07:00:43.167Z,9.78
2022-10-22T07:03:17.695Z,9.75
2022-10-22T07:05:50.343Z,9.82
2022-10-22T07:08:22.977Z,9.98
2022-10-22T07:10:59.624Z,10.15
2022-10-22T07:13:34.106Z,10.31
2022-10-22T07:16:08.685Z,10.43
2022-10-22T07:18:42.986Z,10.59
2022-10-22T07:21:18.476Z,10.80
2022-10-22T07:23:51.557Z,11.02
2022-10-22T07:26:25.678Z,11.24
2022-10-22T07:28:58.716Z,11.42
2022-10-22T07:31:32.370Z,11.43
2022-10-22T07:34:05.426Z,11.25
2022-10-22T07:36:38.317Z,11.39
2022-10-22T07:39:11.205Z,11.48
2022-10-22T07:41:44.445Z,11.51
2022-10-22T07:44:17.697Z,11.65
2022-10-22T07:46:50.495Z,11.68
2022-10-22T07:49:23.938Z,11.72
2022-10-22T07:51:54.415Z,11.72
2022-10-22T07:54:27.125Z,11.72
2022-10-22T07:57:01.504Z,11.76
2022-10-22T07:59:34.223Z,11.78
2022-10-22T08:02:07.106Z,11.80
2022-10-22T08:04:40.366Z,11.87
2022-10-22T08:07:13.126Z,11.89
2022-10-22T08:09:46.521Z,11.93
2022-10-22T08:12:19.475Z,11.96
2022-10-22T08:14:52.229Z,11.93
2022-10-22T08:17:24.694Z,11.92
2022-10-22T08:19:57.683Z,11.97
2022-10-22T08:22:30.564Z,12.02
2022-10-22T08:25:03.344Z,12.06
2022-10-22T08:27:36.437Z,12.18
2022-10-22T08:30:11.046Z,12.42
2022-10-22T08:32:44.866Z,12.69
2022-10-22T08:35:17.839Z,12.81
2022-10-22T08:37:50.437Z,13.09
2022-10-22T08:40:31.326Z,13.33
2022-10-22T08:43:53.937Z,13.58
2022-10-22T08:46:47.025Z,13.84
2022-10-22T08:49:24.899Z,13.84
2022-10-22T08:51:59.475Z,13.52
2022-10-22T08:54:42.296Z,13.58
2022-10-22T08:57:40.486Z,13.56
2022-10-22T09:00:22.146Z,13.40
2022-10-22T09:03:09.905Z,13.30
2022-10-22T09:08:28.835Z,13.18
2022-10-22T09:11:04.384Z,13.18
2022-10-22T09:13:37.235Z,13.18
2022-10-22T09:16:19.908Z,13.19
2022-10-22T09:19:06.827Z,13.15
2022-10-22T09:21:55.310Z,13.16
2022-10-22T09:24:39.865Z,13.17
2022-10-22T09:27:18.152Z,13.24
2022-10-22T09:29:51.557Z,13.30
2022-10-22T09:32:25.959Z,13.32
2022-10-22T09:35:04.046Z,13.30
2022-10-22T09:37:48.756Z,13.38
2022-10-22T09:40:22.856Z,13.38
2022-10-22T09:42:55.351Z,13.45
2022-10-22T09:45:30.025Z,13.48
2022-10-22T09:48:20.095Z,13.51
2022-10-22T09:50:59.305Z,13.54
2022-10-22T09:53:33.684Z,13.61
2022-10-22T09:56:12.398Z,13.65
2022-10-22T09:58:51.466Z,13.65
2022-10-22T10:01:27.267Z,13.66
2022-10-22T10:04:09.621Z,13.67
2022-10-22T10:06:44.886Z,13.66
2022-10-22T10:09:21.844Z,13.62
2022-10-22T10:12:01.515Z,13.62
2022-10-22T10:14:43.015Z,13.62
2022-10-22T10:17:25.076Z,13.63
2022-10-22T10:20:24.455Z,13.60
2022-10-22T10:23:05.660Z,13.58
2022-10-22T10:25:50.117Z,13.51
2022-10-22T10:28:34.365Z,13.49
2022-10-22T10:31:19.325Z,13.49
2022-10-22T10:33:59.587Z,13.47
2022-10-22T10:36:41.725Z,13.43
2022-10-22T10:39:20.977Z,13.39
2022-10-22T10:42:01.325Z,13.37
2022-10-22T10:44:50.581Z,13.35
2022-10-22T10:47:35.650Z,13.32
2022-10-22T10:50:25.705Z,13.30
2022-10-22T10:53:08.956Z,13.22
2022-10-22T10:56:01.429Z,13.23
2022-10-22T10:58:45.196Z,13.23
2022-10-22T11:01:21.751Z,13.20
2022-10-22T11:04:14.295Z,13.10
2022-10-22T11:06:48.698Z,13.10
2022-10-22T11:09:28.606Z,13.08
2022-10-22T11:12:06.997Z,13.01
2022-10-22T11:14:57.856Z,12.98
2022-10-22T11:17:37.554Z,12.93
2022-10-22T11:20:20.616Z,12.87
2022-10-22T11:23:18.239Z,12.85
2022-10-22T11:25:52.935Z,12.73
2022-10-22T11:28:33.816Z,12.67
2022-10-22T11:31:11.685Z,12.65
2022-10-22T11:33:57.342Z,12.61
2022-10-22T11:36:38.986Z,12.57
2022-10-22T11:39:29.477Z,12.57
2022-10-22T11:42:07.088Z,12.51
2022-10-22T11:45:00.746Z,12.54
2022-10-22T11:47:38.190Z,12.49
2022-10-22T11:50:26.636Z,12.44
2022-10-22T11:53:05.144Z,12.43
2022-10-22T11:55:48.621Z,12.41
2022-10-22T11:58:42.719Z,12.34
2022-10-22T12:01:29.572Z,12.29
2022-10-22T12:04:23.750Z,12.22
2022-10-22T12:06:58.964Z,12.21
2022-10-22T12:09:34.767Z,12.12
2022-10-22T12:12:18.706Z,12.14
2022-10-22T12:14:56.905Z,12.12
2022-10-22T12:17:32.816Z,12.05
2022-10-22T12:20:12.976Z,12.06
2022-10-22T12:22:46.456Z,12.06
2022-10-22T12:25:24.996Z,12.05
2022-10-22T12:28:00.125Z,12.02
2022-10-22T12:30:35.142Z,12.02
2022-10-22T12:33:20.175Z,12.03
2022-10-22T12:35:57.857Z,11.98
2022-10-22T12:38:31.104Z,11.90
2022-10-22T12:41:03.676Z,11.90
2022-10-22T12:43:36.516Z,11.92
2022-10-22T12:46:16.752Z,11.91
2022-10-22T12:48:49.896Z,11.89
2022-10-22T12:51:23.671Z,11.91
2022-10-22T12:54:00.286Z,11.91
2022-10-22T12:56:35.839Z,11.89
2022-10-22T12:59:17.575Z,11.89
2022-10-22T13:01:51.072Z,11.80
2022-10-22T13:04:33.679Z,11.83
2022-10-22T13:07:22.256Z,11.76
2022-10-22T13:10:02.985Z,11.85
2022-10-22T13:12:45.866Z,11.90
2022-10-22T13:15:35.335Z,11.94
2022-10-22T13:18:16.976Z,11.99
2022-10-22T13:20:58.046Z,12.02
2022-10-22T13:23:31.957Z,12.05
2022-10-22T13:26:13.646Z,12.07
2022-10-22T13:28:51.573Z,12.03
2022-10-22T13:31:27.704Z,12.02
2022-10-22T13:34:06.557Z,12.04
2022-10-22T13:36:42.539Z,12.02
2022-10-22T13:39:21.096Z,12.03
2022-10-22T13:41:54.272Z,12.07
2022-10-22T13:44:26.947Z,12.07
2022-10-22T13:46:59.853Z,12.02
2022-10-22T13:49:32.336Z,12.02
2022-10-22T13:52:05.475Z,12.02
2022-10-22T13:54:38.387Z,12.01
2022-10-22T13:57:14.505Z,12.03
2022-10-22T13:59:47.175Z,11.99
2022-10-22T14:02:20.792Z,11.97
2022-10-22T14:04:54.226Z,11.97
2022-10-22T14:07:25.147Z,11.90
2022-10-22T14:09:57.792Z,11.87
2022-10-22T14:12:30.496Z,11.94
2022-10-22T14:15:03.081Z,11.99
2022-10-22T14:17:35.704Z,11.96
2022-10-22T14:20:09.075Z,11.98
2022-10-22T14:22:42.195Z,12.01
2022-10-22T14:25:17.676Z,12.02
2022-10-22T14:27:51.024Z,12.02
2022-10-22T14:30:26.158Z,12.04
2022-10-22T14:32:59.608Z,12.06
2022-10-22T14:35:32.263Z,12.08
2022-10-22T14:38:04.855Z,12.07
2022-10-22T14:40:39.296Z,12.07
2022-10-22T14:43:14.776Z,12.05
2022-10-22T14:45:47.497Z,12.06
2022-10-22T14:48:20.673Z,12.06
2022-10-22T14:50:53.275Z,12.06
2022-10-22T14:53:26.116Z,12.06
2022-10-22T14:55:59.951Z,12.04
2022-10-22T14:58:32.817Z,12.04
2022-10-22T15:01:07.388Z,12.03
2022-10-22T15:03:40.126Z,12.03
2022-10-22T15:06:12.775Z,12.05
2022-10-22T15:08:46.334Z,12.03
2022-10-22T15:11:19.063Z,11.98
2022-10-22T15:13:52.027Z,11.97
2022-10-22T15:16:24.786Z,11.95
2022-10-22T15:18:57.735Z,11.93
2022-10-22T15:21:30.580Z,11.92
2022-10-22T15:24:05.089Z,11.94
2022-10-22T15:26:37.837Z,11.90
2022-10-22T15:29:10.876Z,11.88
2022-10-22T15:31:49.295Z,11.88
2022-10-22T15:34:27.365Z,11.84
2022-10-22T15:37:01.697Z,11.83
2022-10-22T15:39:34.596Z,11.84
2022-10-22T15:42:07.455Z,11.81
2022-10-22T15:44:41.694Z,11.76
2022-10-22T15:47:14.505Z,11.75
2022-10-22T15:49:48.065Z,11.72
2022-10-22T15:52:22.408Z,11.69
2022-10-22T15:54:55.166Z,11.70
2022-10-22T15:57:28.096Z,11.71
2022-10-22T16:00:00.936Z,11.69
2022-10-22T16:02:33.706Z,11.69
2022-10-22T16:05:06.863Z,11.72
2022-10-22T16:07:39.927Z,11.72
2022-10-22T16:10:14.605Z,11.72
2022-10-22T16:12:47.276Z,11.66
2022-10-22T16:15:20.317Z,11.65
2022-10-22T16:17:55.293Z,11.61
2022-10-22T16:20:28.036Z,11.53
2022-10-22T16:23:01.501Z,11.50
2022-10-22T16:25:39.125Z,11.49
2022-10-22T16:28:13.900Z,11.44
2022-10-22T16:30:46.835Z,11.43
2022-10-22T16:33:19.465Z,11.38
2022-10-22T16:35:52.175Z,11.35
2022-10-22T16:38:24.746Z,11.34
2022-10-22T16:41:07.877Z,11.32
2022-10-22T16:43:40.817Z,11.30
2022-10-22T16:46:13.819Z,11.30
2022-10-22T16:48:50.688Z,11.31
2022-10-22T16:51:24.928Z,11.26
2022-10-22T16:53:58.896Z,11.23
2022-10-22T16:56:31.745Z,11.18
2022-10-22T16:59:04.416Z,11.19
2022-10-22T17:01:40.859Z,11.17
2022-10-22T17:04:17.656Z,11.15
2022-10-22T17:06:50.263Z,11.15
2022-10-22T17:09:24.516Z,11.15
2022-10-22T17:11:57.175Z,11.14
2022-10-22T17:14:29.855Z,11.14
2022-10-22T17:17:02.669Z,11.15
2022-10-22T17:19:39.068Z,11.13
2022-10-22T17:22:16.136Z,11.14
2022-10-22T17:25:08.177Z,11.11
2022-10-22T17:27:41.019Z,11.11
2022-10-22T17:30:17.655Z,11.10
2022-10-22T17:32:50.695Z,11.07
2022-10-22T17:35:24.139Z,11.08
2022-10-22T17:37:59.590Z,11.08
2022-10-22T17:40:32.064Z,11.08
2022-10-22T17:43:04.925Z,11.06
2022-10-22T17:45:38.736Z,11.04
2022-10-22T17:48:11.337Z,11.01
2022-10-22T17:50:49.728Z,11.01
2022-10-22T17:53:26.735Z,11.00
2022-10-22T17:56:07.405Z,10.99
2022-10-22T17:58:42.695Z,10.99
2022-10-22T18:01:23.957Z,11.00
2022-10-22T18:04:00.545Z,10.99
2022-10-22T18:06:34.644Z,10.98
2022-10-22T18:09:12.403Z,10.98
2022-10-22T18:11:47.696Z,10.98
2022-10-22T18:14:21.422Z,10.99
2022-10-22T18:16:55.087Z,10.99
2022-10-22T18:19:26.169Z,10.98
2022-10-22T18:21:59.145Z,10.96
2022-10-22T18:24:31.837Z,10.97
2022-10-22T18:27:05.406Z,10.96
2022-10-22T18:29:40.071Z,10.96
2022-10-22T18:32:13.346Z,10.96
2022-10-22T18:34:48.488Z,10.95
2022-10-22T18:37:22.003Z,10.92
2022-10-22T18:39:55.006Z,10.94
2022-10-22T18:42:31.172Z,10.92
2022-10-22T18:45:06.936Z,10.92
2022-10-22T18:47:44.246Z,10.95
2022-10-22T18:50:17.966Z,10.96
2022-10-22T18:52:53.006Z,10.95
2022-10-22T18:55:27.635Z,10.96
2022-10-22T18:58:00.186Z,10.94
2022-10-22T19:00:33.516Z,10.89
2022-10-22T19:03:06.238Z,10.90
2022-10-22T19:05:46.374Z,10.91
2022-10-22T19:08:19.995Z,10.92
2022-10-22T19:10:53.091Z,10.89
2022-10-22T19:13:26.557Z,10.90
2022-10-22T19:16:05.714Z,10.90
2022-10-22T19:18:40.429Z,10.91
2022-10-22T19:21:13.434Z,10.91
2022-10-22T19:23:46.928Z,10.91
2022-10-22T19:26:24.416Z,10.92
2022-10-22T19:28:58.446Z,10.91
2022-10-22T19:31:32.538Z,10.91
2022-10-22T19:34:05.774Z,10.92
2022-10-22T19:36:39.945Z,10.92
2022-10-22T19:39:12.466Z,10.92
2022-10-22T19:41:45.450Z,10.93
2022-10-22T19:44:20.837Z,10.91
2022-10-22T19:46:54.198Z,10.91
2022-10-22T19:49:27.221Z,10.92
2022-10-22T19:52:00.287Z,10.94
2022-10-22T19:54:33.909Z,10.95
2022-10-22T19:57:07.472Z,10.96
2022-10-22T19:59:42.154Z,10.95
2022-10-22T20:02:16.814Z,10.96
2022-10-22T20:04:52.097Z,10.95
2022-10-22T20:07:25.536Z,10.96
2022-10-22T20:09:58.555Z,10.97
2022-10-22T20:12:33.215Z,10.98
2022-10-22T20:15:08.156Z,10.97
2022-10-22T20:17:42.295Z,10.98
2022-10-22T20:20:16.781Z,10.97
2022-10-22T20:22:51.066Z,10.95
2022-10-22T20:25:25.992Z,10.95
2022-10-22T20:28:00.568Z,10.96
2022-10-22T20:30:35.833Z,10.96
2022-10-22T20:33:11.056Z,10.99
2022-10-22T20:36:03.692Z,10.99
2022-10-22T20:38:38.955Z,10.99
2022-10-22T20:41:18.370Z,11.02
2022-10-22T20:43:55.157Z,11.00
2022-10-22T20:46:31.597Z,11.00
2022-10-22T20:49:12.556Z,11.01
2022-10-22T20:51:49.369Z,11.01
2022-10-22T20:54:24.831Z,11.02
2022-10-22T20:57:00.033Z,11.03
2022-10-22T20:59:37.297Z,11.04
2022-10-22T21:02:14.365Z,11.06
2022-10-22T21:04:49.075Z,11.05
2022-10-22T21:07:22.869Z,11.06
2022-10-22T21:09:57.764Z,11.06
2022-10-22T21:12:31.211Z,11.08
2022-10-22T21:15:03.196Z,11.08
2022-10-22T21:17:37.519Z,11.06
2022-10-22T21:20:13.207Z,11.09
2022-10-22T21:22:49.321Z,11.10
2022-10-22T21:25:24.249Z,11.11
2022-10-22T21:27:58.377Z,11.14
2022-10-22T21:30:33.403Z,11.15
2022-10-22T21:33:07.499Z,11.19
2022-10-22T21:35:41.939Z,11.19
2022-10-22T21:38:15.727Z,11.19
2022-10-22T21:40:50.375Z,11.19
2022-10-22T21:43:24.833Z,11.21
2022-10-22T21:46:08.489Z,11.22
2022-10-22T21:48:42.903Z,11.22
2022-10-22T21:51:18.886Z,11.22
2022-10-22T21:56:33.376Z,11.23
2022-10-22T21:59:09.557Z,11.24
2022-10-22T22:01:44.475Z,11.22
2022-10-22T22:04:18.507Z,11.22
2022-10-22T22:06:53.618Z,11.23
2022-10-22T22:09:27.540Z,11.26
2022-10-22T22:12:01.427Z,11.27
2022-10-22T22:14:35.208Z,11.28
2022-10-22T22:17:11.426Z,11.30
2022-10-22T22:19:47.228Z,11.32
2022-10-22T22:22:21.433Z,11.35
2022-10-22T22:24:55.635Z,11.36
2022-10-22T22:27:29.869Z,11.38
2022-10-22T22:30:03.399Z,11.39
2022-10-22T22:32:38.605Z,11.41
2022-10-22T22:35:13.327Z,11.43
2022-10-22T22:37:47.444Z,11.45
2022-10-22T22:40:21.295Z,11.46
2022-10-22T22:42:55.353Z,11.47
2022-10-22T22:45:29.350Z,11.47
2022-10-22T22:48:03.417Z,11.49
2022-10-22T22:50:37.762Z,11.52
2022-10-22T22:53:12.426Z,11.53
2022-10-22T22:55:46.354Z,11.54
2022-10-22T22:58:20.679Z,11.55
2022-10-22T23:00:55.018Z,11.57
2022-10-22T23:03:29.152Z,11.56
2022-10-22T23:06:02.753Z,11.56
2022-10-22T23:08:36.988Z,11.58
2022-10-22T23:11:13.722Z,11.59
2022-10-22T23:13:48.395Z,11.62
2022-10-22T23:16:24.205Z,11.62
2022-10-22T23:18:59.449Z,11.63
2022-10-22T23:21:35.928Z,11.64
2022-10-22T23:24:14.904Z,11.65
2022-10-22T23:26:51.393Z,11.67
2022-10-22T23:29:27.338Z,11.68
2022-10-22T23:32:04.551Z,11.71
2022-10-22T23:34:38.751Z,11.71
2022-10-22T23:37:14.173Z,11.73
2022-10-22T23:39:48.303Z,11.74
2022-10-22T23:42:22.494Z,11.76
2022-10-22T23:44:56.962Z,11.74
2022-10-22T23:47:32.534Z,11.75
2022-10-22T23:50:06.866Z,11.75
2022-10-22T23:52:41.840Z,11.76
2022-10-22T23:55:15.967Z,11.78
2022-10-22T23:57:51.712Z,11.77
